Time;durP1;ratioP1;P1;durP2;ratioP2;P2;SDS_P1;SDS_P2;PMS_P1;PMS_P2;Temp;Humidity;BMP_temperature;BMP_pressure;BME280_temperature;BME280_humidity;BME280_pressure;Samples;Min_cycle;Max_cycle;Signal;HPM_P1;HPM_P2
2022/07/22 00:01:46;;;;;;;1.48;0.73;;;;;;;;;;5076708;27;93122;-62
2022/07/22 00:04:12;;;;;;;2.28;0.90;;;;;;;;;;5075383;27;93387;-63
2022/07/22 00:06:38;;;;;;;1.40;0.80;;;;;;;;;;5094785;27;92494;-62
2022/07/22 00:09:05;;;;;;;1.50;0.95;;;;;;;;;;5094757;27;94825;-63
2022/07/22 00:11:31;;;;;;;2.15;0.90;;;;;;;;;;5099739;27;93089;-63
2022/07/22 00:13:57;;;;;;;1.15;0.75;;;;;;;;;;5087943;27;93180;-63
2022/07/22 00:16:23;;;;;;;2.70;1.10;;;;;;;;;;5076667;27;94606;-63
2022/07/22 00:18:50;;;;;;;2.22;0.80;;;;;;;;;;5076000;27;92706;-62
2022/07/22 00:21:16;;;;;;;4.85;1.10;;;;;;;;;;5075916;27;92385;-63
2022/07/22 00:23:43;;;;;;;1.42;0.80;;;;;;;;;;5075781;27;93530;-62
2022/07/22 00:26:09;;;;;;;2.30;0.90;;;;;;;;;;5076893;27;92120;-63
2022/07/22 00:28:36;;;;;;;2.47;1.10;;;;;;;;;;5076546;27;93458;-63
2022/07/22 00:31:02;;;;;;;1.02;0.80;;;;;;;;;;5075825;27;93238;-63
2022/07/22 00:33:28;;;;;;;1.55;0.82;;;;;;;;;;5077420;27;94772;-63
2022/07/22 00:35:55;;;;;;;2.20;1.00;;;;;;;;;;5075021;27;93446;-64
2022/07/22 00:38:21;;;;;;;3.00;1.00;;;;;;;;;;5076097;27;92409;-62
2022/07/22 00:40:47;;;;;;;6.07;1.10;;;;;;;;;;5075668;27;92951;-63
2022/07/22 00:43:13;;;;;;;1.30;0.75;;;;;;;;;;5075168;27;93516;-63
2022/07/22 00:45:40;;;;;;;2.72;0.98;;;;;;;;;;5075736;27;92434;-62
2022/07/22 00:48:06;;;;;;;2.63;0.95;;;;;;;;;;5076024;27;94506;-63
2022/07/22 00:50:34;;;;;;;3.22;1.05;;;;;;;;;;5076217;27;92589;-63
2022/07/22 00:53:00;;;;;;;1.63;0.90;;;;;;;;;;5076016;27;92552;-63
2022/07/22 00:55:27;;;;;;;3.03;0.80;;;;;;;;;;5078760;27;93110;-62
2022/07/22 00:57:54;;;;;;;1.70;0.90;;;;;;;;;;5073704;27;94866;-62
2022/07/22 01:00:21;;;;;;;2.55;1.08;;;;;;;;;;5075176;27;95841;-63
2022/07/22 01:02:47;;;;;;;1.60;0.80;;;;;;;;;;5075561;27;94963;-63
2022/07/22 01:05:13;;;;;;;2.60;0.80;;;;;;;;;;5075225;27;92380;-63
2022/07/22 01:07:40;;;;;;;1.17;0.70;;;;;;;;;;5075627;27;94249;-63
2022/07/22 01:10:07;;;;;;;1.23;1.00;;;;;;;;;;5075662;27;94596;-63
2022/07/22 01:12:33;;;;;;;2.90;1.20;;;;;;;;;;5075231;27;92375;-63
2022/07/22 01:14:59;;;;;;;4.72;1.00;;;;;;;;;;5075989;27;93141;-63
2022/07/22 01:17:26;;;;;;;3.80;1.17;;;;;;;;;;5078726;27;94349;-63
2022/07/22 01:20:00;;;;;;;2.00;1.00;;;;;;;;;;5075275;27;93215;-63
2022/07/22 01:22:27;;;;;;;1.38;0.80;;;;;;;;;;5073259;27;95967;-63
2022/07/22 01:24:58;;;;;;;1.38;0.80;;;;;;;;;;5075594;27;92441;-63
2022/07/22 01:27:25;;;;;;;1.70;0.98;;;;;;;;;;5057092;27;93597;-63
2022/07/22 01:29:51;;;;;;;2.05;1.00;;;;;;;;;;5075112;27;94470;-63
2022/07/22 01:32:17;;;;;;;1.58;0.90;;;;;;;;;;5076029;27;92415;-63
2022/07/22 01:34:43;;;;;;;2.88;1.08;;;;;;;;;;5078545;27;93616;-63
2022/07/22 01:37:10;;;;;;;1.20;0.80;;;;;;;;;;5078469;27;94477;-62
2022/07/22 01:39:36;;;;;;;1.27;0.90;;;;;;;;;;5082668;27;91671;-63
2022/07/22 01:42:03;;;;;;;1.45;1.00;;;;;;;;;;5078415;27;93406;-63
2022/07/22 01:44:30;;;;;;;2.00;1.00;;;;;;;;;;5078199;27;92403;-62
2022/07/22 01:46:58;;;;;;;1.88;1.13;;;;;;;;;;5077315;27;94873;-63
2022/07/22 01:49:24;;;;;;;1.63;1.00;;;;;;;;;;5078073;27;93311;-62
2022/07/22 01:51:51;;;;;;;1.45;1.05;;;;;;;;;;5078694;27;92784;-63
2022/07/22 01:54:17;;;;;;;2.60;1.10;;;;;;;;;;5078722;27;94207;-63
2022/07/22 01:56:43;;;;;;;3.42;1.27;;;;;;;;;;5078759;27;92435;-62
2022/07/22 01:59:10;;;;;;;1.02;0.75;;;;;;;;;;5078007;27;92523;-64
2022/07/22 02:01:36;;;;;;;1.55;0.77;;;;;;;;;;5081127;27;93670;-63
2022/07/22 02:04:03;;;;;;;0.90;0.80;;;;;;;;;;5078490;27;91672;-62
2022/07/22 02:06:30;;;;;;;2.63;0.90;;;;;;;;;;5078104;27;92409;-63
2022/07/22 02:08:56;;;;;;;2.72;0.82;;;;;;;;;;5077859;27;93432;-64
2022/07/22 02:11:23;;;;;;;3.17;1.02;;;;;;;;;;5076377;27;94922;-63
2022/07/22 02:13:50;;;;;;;1.95;0.90;;;;;;;;;;5077808;27;96583;-63
2022/07/22 02:16:16;;;;;;;2.67;1.08;;;;;;;;;;5078062;27;93386;-62
2022/07/22 02:18:45;;;;;;;2.20;0.90;;;;;;;;;;5078652;27;92851;-62
2022/07/22 02:21:11;;;;;;;1.58;0.90;;;;;;;;;;5080768;27;92593;-63
2022/07/22 02:23:39;;;;;;;2.00;1.00;;;;;;;;;;5077627;27;92422;-62
2022/07/22 02:26:05;;;;;;;2.30;1.00;;;;;;;;;;5077650;27;93151;-63
2022/07/22 02:28:31;;;;;;;2.38;1.00;;;;;;;;;;5077797;27;92637;-63
2022/07/22 02:30:58;;;;;;;3.25;1.13;;;;;;;;;;5077750;27;92391;-63
2022/07/22 02:33:24;;;;;;;3.13;1.00;;;;;;;;;;5078098;27;94163;-62
2022/07/22 02:35:50;;;;;;;1.58;1.00;;;;;;;;;;5075705;27;95989;-62
2022/07/22 02:38:17;;;;;;;1.50;0.82;;;;;;;;;;5077459;27;92367;-60
2022/07/22 02:40:44;;;;;;;1.60;0.98;;;;;;;;;;5077545;27;93300;-61
2022/07/22 02:43:10;;;;;;;1.95;0.95;;;;;;;;;;5079935;27;93714;-60
2022/07/22 02:45:36;;;;;;;1.95;1.00;;;;;;;;;;5076595;27;92315;-63
2022/07/22 02:48:03;;;;;;;4.43;1.30;;;;;;;;;;5077366;27;92477;-63
2022/07/22 02:50:29;;;;;;;2.17;1.23;;;;;;;;;;5077213;27;92530;-63
2022/07/22 02:52:55;;;;;;;1.63;0.82;;;;;;;;;;5077825;27;93161;-62
2022/07/22 02:55:22;;;;;;;4.82;0.98;;;;;;;;;;5077587;27;94611;-62
2022/07/22 02:57:48;;;;;;;1.70;1.00;;;;;;;;;;5077339;27;92409;-62
2022/07/22 03:00:15;;;;;;;1.55;0.80;;;;;;;;;;5075421;27;94686;-63
2022/07/22 03:02:41;;;;;;;1.60;1.00;;;;;;;;;;5077472;27;94868;-63
2022/07/22 03:05:08;;;;;;;1.23;0.93;;;;;;;;;;5080242;27;92482;-63
2022/07/22 03:07:34;;;;;;;2.03;0.82;;;;;;;;;;5077006;27;93730;-63
2022/07/22 03:10:01;;;;;;;2.00;1.10;;;;;;;;;;5077010;27;92467;-64
2022/07/22 03:12:28;;;;;;;3.15;1.00;;;;;;;;;;5077510;27;94224;-63
2022/07/22 03:14:55;;;;;;;1.40;0.93;;;;;;;;;;5077161;27;94278;-62
2022/07/22 03:17:21;;;;;;;3.83;1.00;;;;;;;;;;5077706;27;91680;-62
2022/07/22 03:19:48;;;;;;;1.17;0.90;;;;;;;;;;5076885;27;92501;-64
2022/07/22 03:22:14;;;;;;;2.13;1.02;;;;;;;;;;5076511;27;93412;-62
2022/07/22 03:24:40;;;;;;;1.65;0.88;;;;;;;;;;5075088;27;94833;-62
2022/07/22 03:27:06;;;;;;;3.33;1.13;;;;;;;;;;5061718;27;95585;-63
2022/07/22 03:29:34;;;;;;;1.75;0.90;;;;;;;;;;5076660;27;92386;-63
2022/07/22 03:32:00;;;;;;;1.17;0.80;;;;;;;;;;5076583;27;93262;-63
2022/07/22 03:34:26;;;;;;;2.70;1.10;;;;;;;;;;5076591;27;94103;-63
2022/07/22 03:36:52;;;;;;;2.00;1.00;;;;;;;;;;5075887;27;92447;-62
2022/07/22 03:39:19;;;;;;;1.58;0.90;;;;;;;;;;5076861;27;94063;-63
2022/07/22 03:41:45;;;;;;;2.75;0.90;;;;;;;;;;5076850;27;92944;-62
2022/07/22 03:44:11;;;;;;;2.53;1.20;;;;;;;;;;5058479;27;92422;-63
2022/07/22 03:46:38;;;;;;;1.23;0.80;;;;;;;;;;5077343;27;94208;-63
2022/07/22 03:49:04;;;;;;;2.60;0.95;;;;;;;;;;5077621;27;95920;-63
2022/07/22 03:51:30;;;;;;;4.63;1.20;;;;;;;;;;5058321;27;95607;-63
2022/07/22 03:54:00;;;;;;;1.75;0.90;;;;;;;;;;5076237;27;94487;-63
2022/07/22 03:56:26;;;;;;;1.23;0.80;;;;;;;;;;5076204;27;92587;-62
2022/07/22 03:58:52;;;;;;;1.33;0.80;;;;;;;;;;5076968;27;94229;-62
2022/07/22 04:01:19;;;;;;;2.65;0.98;;;;;;;;;;5076437;27;94471;-62
2022/07/22 04:03:46;;;;;;;2.35;0.90;;;;;;;;;;5075970;27;92502;-63
2022/07/22 04:06:12;;;;;;;2.80;1.13;;;;;;;;;;5076627;27;93225;-62
2022/07/22 04:08:38;;;;;;;1.55;0.82;;;;;;;;;;5075858;27;93602;-63
2022/07/22 04:11:05;;;;;;;2.45;1.00;;;;;;;;;;5079298;27;92351;-63
2022/07/22 04:13:31;;;;;;;2.05;0.70;;;;;;;;;;5056458;27;95761;-62
2022/07/22 04:15:58;;;;;;;1.45;0.70;;;;;;;;;;5077186;27;92371;-62
2022/07/22 04:18:24;;;;;;;2.15;0.90;;;;;;;;;;5076435;27;94556;-63
2022/07/22 04:20:50;;;;;;;2.47;0.98;;;;;;;;;;5075784;27;93566;-64
2022/07/22 04:23:17;;;;;;;2.25;1.20;;;;;;;;;;5075969;27;92375;-63
2022/07/22 04:25:47;;;;;;;2.70;0.98;;;;;;;;;;5076345;27;94361;-63
2022/07/22 04:28:13;;;;;;;1.48;0.90;;;;;;;;;;5075555;27;93554;-63
2022/07/22 04:30:39;;;;;;;2.85;1.20;;;;;;;;;;5079845;27;91745;-63
2022/07/22 04:33:06;;;;;;;1.20;0.82;;;;;;;;;;5076226;27;92375;-62
2022/07/22 04:35:32;;;;;;;2.75;0.95;;;;;;;;;;5075513;27;92525;-63
2022/07/22 04:37:59;;;;;;;1.13;0.88;;;;;;;;;;5073892;27;94846;-62
2022/07/22 04:40:25;;;;;;;2.28;1.10;;;;;;;;;;5075781;27;94499;-62
2022/07/22 04:42:51;;;;;;;3.13;1.00;;;;;;;;;;5076236;27;92423;-63
2022/07/22 04:45:18;;;;;;;1.75;0.77;;;;;;;;;;5075942;27;93176;-63
2022/07/22 04:47:44;;;;;;;1.75;0.98;;;;;;;;;;5075572;27;93510;-63
2022/07/22 04:50:10;;;;;;;2.00;0.90;;;;;;;;;;5075459;27;92489;-62
2022/07/22 04:52:37;;;;;;;2.67;1.05;;;;;;;;;;5078488;27;92993;-62
2022/07/22 04:55:03;;;;;;;1.80;0.85;;;;;;;;;;5076224;27;91680;-64
2022/07/22 04:57:30;;;;;;;1.30;1.00;;;;;;;;;;5075373;27;92512;-63
2022/07/22 04:59:56;;;;;;;2.13;0.93;;;;;;;;;;5075424;27;93501;-63
2022/07/22 05:02:22;;;;;;;1.95;0.90;;;;;;;;;;5073751;27;94961;-62
2022/07/22 05:04:49;;;;;;;1.25;0.70;;;;;;;;;;5075130;27;95459;-62
2022/07/22 05:07:15;;;;;;;1.55;1.10;;;;;;;;;;5074225;27;93491;-62
2022/07/22 05:09:41;;;;;;;2.28;0.90;;;;;;;;;;5075880;27;92414;-63
2022/07/22 05:12:08;;;;;;;1.52;0.90;;;;;;;;;;5057419;27;93066;-63
2022/07/22 05:14:34;;;;;;;1.40;0.80;;;;;;;;;;5060126;27;93574;-63
2022/07/22 05:17:01;;;;;;;2.42;1.20;;;;;;;;;;5075477;27;93482;-63
2022/07/22 05:19:27;;;;;;;1.83;0.85;;;;;;;;;;5075630;27;92727;-63
2022/07/22 05:21:53;;;;;;;1.10;0.80;;;;;;;;;;5074930;27;92473;-63
2022/07/22 05:24:20;;;;;;;1.75;0.82;;;;;;;;;;5057053;27;93181;-62
2022/07/22 05:26:46;;;;;;;0.70;0.70;;;;;;;;;;5073301;27;95937;-63
2022/07/22 05:29:13;;;;;;;1.63;0.82;;;;;;;;;;5075032;27;92448;-63
2022/07/22 05:31:39;;;;;;;1.20;0.70;;;;;;;;;;5074947;27;93052;-63
2022/07/22 05:34:07;;;;;;;2.70;0.90;;;;;;;;;;5074603;27;94585;-62
2022/07/22 05:36:33;;;;;;;3.03;0.90;;;;;;;;;;5077963;27;92414;-63
2022/07/22 05:39:00;;;;;;;2.03;0.90;;;;;;;;;;5074896;27;93433;-63
2022/07/22 05:41:26;;;;;;;2.10;0.73;;;;;;;;;;5075094;27;92464;-62
2022/07/22 05:43:53;;;;;;;2.00;1.13;;;;;;;;;;5075473;27;93253;-62
2022/07/22 05:46:19;;;;;;;0.98;0.70;;;;;;;;;;5075018;27;94485;-62
2022/07/22 05:48:46;;;;;;;1.08;0.80;;;;;;;;;;5075236;27;92378;-63
2022/07/22 05:51:12;;;;;;;1.83;0.70;;;;;;;;;;5073343;27;94764;-62
2022/07/22 05:53:39;;;;;;;0.73;0.65;;;;;;;;;;5075032;27;94522;-63
2022/07/22 05:56:06;;;;;;;1.48;0.73;;;;;;;;;;5075241;27;92450;-63
2022/07/22 05:58:32;;;;;;;1.35;0.80;;;;;;;;;;5077692;27;93689;-62
2022/07/22 06:00:58;;;;;;;1.85;0.70;;;;;;;;;;5074265;27;92410;-63
2022/07/22 06:03:25;;;;;;;1.20;0.68;;;;;;;;;;5074711;27;94496;-63
2022/07/22 06:05:51;;;;;;;0.70;0.70;;;;;;;;;;5075165;27;94329;-64
2022/07/22 06:08:18;;;;;;;1.13;0.63;;;;;;;;;;5075200;27;91735;-62
2022/07/22 06:10:44;;;;;;;2.05;0.90;;;;;;;;;;5074730;27;92477;-62
2022/07/22 06:13:10;;;;;;;2.42;0.90;;;;;;;;;;5074511;27;94432;-63
2022/07/22 06:15:37;;;;;;;0.70;0.70;;;;;;;;;;5073013;27;94787;-63
2022/07/22 06:18:03;;;;;;;1.10;0.70;;;;;;;;;;5077412;27;95399;-63
2022/07/22 06:20:30;;;;;;;0.98;0.65;;;;;;;;;;5077899;27;92471;-62
2022/07/22 06:22:56;;;;;;;2.88;0.75;;;;;;;;;;5077708;27;92350;-63
2022/07/22 06:25:22;;;;;;;0.73;0.68;;;;;;;;;;5078210;27;94719;-63
2022/07/22 06:28:07;;;;;;;1.02;0.70;;;;;;;;;;5077678;27;92717;-62
2022/07/22 06:30:33;;;;;;;1.83;0.70;;;;;;;;;;5077711;27;93311;-62
2022/07/22 06:33:00;;;;;;;2.47;0.98;;;;;;;;;;5078105;27;92792;-63
2022/07/22 06:35:26;;;;;;;1.08;0.50;;;;;;;;;;5078471;27;92390;-63
2022/07/22 06:37:53;;;;;;;1.55;0.73;;;;;;;;;;5077343;27;93152;-63
2022/07/22 06:40:33;;;;;;;0.77;0.77;;;;;;;;;;5078718;27;95886;-63
2022/07/22 06:43:00;;;;;;;1.48;0.80;;;;;;;;;;5077133;27;96117;-62
2022/07/22 06:45:27;;;;;;;0.93;0.70;;;;;;;;;;5077975;27;93466;-62
2022/07/22 06:47:53;;;;;;;1.33;0.70;;;;;;;;;;5059485;27;92395;-63
2022/07/22 06:50:21;;;;;;;1.15;0.70;;;;;;;;;;5077710;27;93397;-63
2022/07/22 06:52:49;;;;;;;2.45;0.90;;;;;;;;;;5077529;27;94501;-62
2022/07/22 06:55:15;;;;;;;1.13;0.70;;;;;;;;;;5076997;27;94036;-63
2022/07/22 06:57:42;;;;;;;1.10;0.70;;;;;;;;;;5077754;27;93170;-63
2022/07/22 07:00:09;;;;;;;1.08;0.88;;;;;;;;;;5077017;27;92757;-62
2022/07/22 07:02:35;;;;;;;2.67;0.80;;;;;;;;;;5079871;27;92414;-63
2022/07/22 07:05:02;;;;;;;0.63;0.63;;;;;;;;;;5075856;27;96783;-63
2022/07/22 07:07:28;;;;;;;1.77;0.60;;;;;;;;;;5077237;27;92445;-62
2022/07/22 07:09:55;;;;;;;1.33;0.80;;;;;;;;;;5077511;27;94503;-62
2022/07/22 07:12:21;;;;;;;1.40;0.80;;;;;;;;;;5077424;27;94476;-63
2022/07/22 07:14:47;;;;;;;1.35;0.70;;;;;;;;;;5077258;27;92465;-63
2022/07/22 07:17:34;;;;;;;1.27;0.70;;;;;;;;;;5077253;27;92757;-63
2022/07/22 07:20:00;;;;;;;0.98;0.65;;;;;;;;;;5077336;27;94549;-62
2022/07/22 07:22:26;;;;;;;0.60;0.60;;;;;;;;;;5077460;27;91749;-62
2022/07/22 07:24:53;;;;;;;0.60;0.60;;;;;;;;;;5079903;27;92368;-63
2022/07/22 07:27:19;;;;;;;2.97;0.70;;;;;;;;;;5076876;27;92437;-63
2022/07/22 07:29:46;;;;;;;1.92;0.50;;;;;;;;;;5074889;27;95544;-62
2022/07/22 07:32:13;;;;;;;0.68;0.68;;;;;;;;;;5076438;27;93623;-63
2022/07/22 07:34:39;;;;;;;1.27;0.55;;;;;;;;;;5076706;27;92498;-63
2022/07/22 07:37:05;;;;;;;3.08;0.73;;;;;;;;;;5076315;27;93194;-62
2022/07/22 07:39:31;;;;;;;2.10;0.75;;;;;;;;;;5076515;27;93537;-62
2022/07/22 07:41:58;;;;;;;0.93;0.55;;;;;;;;;;5077000;27;92349;-63
2022/07/22 07:44:24;;;;;;;1.30;0.68;;;;;;;;;;5076889;27;93509;-63
2022/07/22 07:46:52;;;;;;;1.02;0.55;;;;;;;;;;5080369;27;92265;-63
2022/07/22 07:49:18;;;;;;;1.38;0.55;;;;;;;;;;5076404;27;92836;-62
2022/07/22 07:51:44;;;;;;;0.80;0.52;;;;;;;;;;5076292;27;92561;-62
2022/07/22 07:54:11;;;;;;;1.88;0.80;;;;;;;;;;5075149;27;96248;-63
2022/07/22 07:56:37;;;;;;;1.05;0.70;;;;;;;;;;5076467;27;95580;-63
2022/07/22 07:59:04;;;;;;;1.00;0.60;;;;;;;;;;5076705;27;93416;-63
2022/07/22 08:01:50;;;;;;;0.57;0.50;;;;;;;;;;5076355;27;92431;-63
2022/07/22 08:04:26;;;;;;;0.93;0.57;;;;;;;;;;5076296;27;93626;-62
2022/07/22 08:07:06;;;;;;;0.50;0.50;;;;;;;;;;5075853;27;93830;-62
2022/07/22 08:09:35;;;;;;;0.73;0.60;;;;;;;;;;5079857;27;92422;-62
2022/07/22 08:12:01;;;;;;;1.35;0.82;;;;;;;;;;5076793;27;92694;-62
2022/07/22 08:14:27;;;;;;;0.95;0.60;;;;;;;;;;5074739;27;92545;-62
2022/07/22 08:16:54;;;;;;;2.38;0.73;;;;;;;;;;5075914;27;93465;-62
2022/07/22 08:19:20;;;;;;;0.70;0.70;;;;;;;;;;5074497;27;96976;-63
2022/07/22 08:21:47;;;;;;;1.10;0.70;;;;;;;;;;5076146;27;92640;-62
2022/07/22 08:24:13;;;;;;;0.90;0.50;;;;;;;;;;5075600;27;93191;-63
2022/07/22 08:26:39;;;;;;;0.57;0.57;;;;;;;;;;5075610;27;93889;-63
2022/07/22 08:29:09;;;;;;;1.30;0.60;;;;;;;;;;5078642;27;92518;-63
2022/07/22 08:31:36;;;;;;;1.35;0.63;;;;;;;;;;5057846;27;93578;-64
2022/07/22 08:34:03;;;;;;;0.80;0.47;;;;;;;;;;5076308;27;92440;-62
2022/07/22 08:36:29;;;;;;;0.98;0.68;;;;;;;;;;5075569;27;92260;-63
2022/07/22 08:38:56;;;;;;;0.63;0.63;;;;;;;;;;5075916;27;93454;-62
2022/07/22 08:41:23;;;;;;;1.02;0.60;;;;;;;;;;5075538;27;92459;-62
2022/07/22 08:43:51;;;;;;;0.80;0.60;;;;;;;;;;5073806;27;94797;-62
2022/07/22 08:46:17;;;;;;;1.70;0.75;;;;;;;;;;5057464;27;93703;-62
2022/07/22 08:48:44;;;;;;;2.08;0.60;;;;;;;;;;5075654;27;92341;-63
2022/07/22 08:51:11;;;;;;;1.48;0.60;;;;;;;;;;5078652;27;93234;-62
2022/07/22 08:53:37;;;;;;;0.60;0.50;;;;;;;;;;5075492;27;92506;-63
2022/07/22 08:56:04;;;;;;;0.80;0.57;;;;;;;;;;5057014;27;93465;-63
2022/07/22 08:58:31;;;;;;;1.17;0.60;;;;;;;;;;5075648;27;94522;-63
2022/07/22 09:01:05;;;;;;;1.30;0.55;;;;;;;;;;5076432;27;91715;-63
2022/07/22 09:03:31;;;;;;;0.52;0.50;;;;;;;;;;5075155;27;92400;-62
2022/07/22 09:05:58;;;;;;;0.93;0.73;;;;;;;;;;5075355;27;93401;-62
2022/07/22 09:08:24;;;;;;;0.52;0.50;;;;;;;;;;5073299;27;94860;-62
2022/07/22 09:10:51;;;;;;;0.60;0.60;;;;;;;;;;5075031;27;96231;-62
2022/07/22 09:13:18;;;;;;;0.40;0.40;;;;;;;;;;5081274;27;93497;-63
2022/07/22 09:15:52;;;;;;;0.50;0.50;;;;;;;;;;5088830;27;93104;-63
2022/07/22 09:18:18;;;;;;;1.33;0.70;;;;;;;;;;5074955;27;93924;-63
2022/07/22 09:20:45;;;;;;;1.20;0.60;;;;;;;;;;5075652;27;92449;-63
2022/07/22 09:23:12;;;;;;;1.63;0.60;;;;;;;;;;5074986;27;93201;-62
2022/07/22 09:25:39;;;;;;;1.08;0.60;;;;;;;;;;5075530;27;92886;-63
2022/07/22 09:28:05;;;;;;;1.35;0.60;;;;;;;;;;5075482;27;92412;-63
2022/07/22 09:30:34;;;;;;;0.50;0.40;;;;;;;;;;5074982;27;93116;-62
2022/07/22 09:33:01;;;;;;;3.22;0.70;;;;;;;;;;5073198;27;94976;-62
2022/07/22 09:35:29;;;;;;;1.10;0.65;;;;;;;;;;5077776;27;92483;-63
2022/07/22 09:37:57;;;;;;;1.13;0.70;;;;;;;;;;5074858;27;93508;-62
2022/07/22 09:40:24;;;;;;;0.88;0.50;;;;;;;;;;5075130;27;92384;-63
2022/07/22 09:42:52;;;;;;;0.63;0.50;;;;;;;;;;5075538;27;94274;-63
2022/07/22 09:45:19;;;;;;;1.02;0.82;;;;;;;;;;5075059;27;93455;-63
2022/07/22 09:47:46;;;;;;;0.43;0.43;;;;;;;;;;5057149;27;92397;-63
2022/07/22 09:50:16;;;;;;;0.43;0.40;;;;;;;;;;5075156;27;93226;-63
2022/07/22 09:52:44;;;;;;;1.67;0.40;;;;;;;;;;5074580;27;93376;-63
2022/07/22 09:55:10;;;;;;;1.90;0.47;;;;;;;;;;5078077;27;92440;-63
2022/07/22 09:57:36;;;;;;;2.10;0.77;;;;;;;;;;5080230;27;94772;-62
2022/07/22 10:00:04;;;;;;;0.52;0.47;;;;;;;;;;5078449;27;92756;-63
2022/07/22 10:02:31;;;;;;;0.77;0.70;;;;;;;;;;5077927;27;93158;-62
2022/07/22 10:04:58;;;;;;;1.02;0.68;;;;;;;;;;5078035;27;93532;-62
2022/07/22 10:07:26;;;;;;;2.00;0.63;;;;;;;;;;5078235;27;92391;-62
2022/07/22 10:09:53;;;;;;;1.05;0.40;;;;;;;;;;5078215;27;93253;-63
2022/07/22 10:12:19;;;;;;;0.60;0.60;;;;;;;;;;5077744;27;93495;-63
2022/07/22 10:14:46;;;;;;;0.80;0.70;;;;;;;;;;5078359;27;91710;-63
2022/07/22 10:17:14;;;;;;;0.93;0.43;;;;;;;;;;5078192;27;92377;-62
2022/07/22 10:19:40;;;;;;;1.85;0.63;;;;;;;;;;5081322;27;94838;-62
2022/07/22 10:22:25;;;;;;;0.65;0.50;;;;;;;;;;5076796;27;94847;-62
2022/07/22 10:25:00;;;;;;;0.98;0.70;;;;;;;;;;5077795;27;93606;-63
2022/07/22 10:27:43;;;;;;;2.38;0.70;;;;;;;;;;5078067;27;92472;-63
2022/07/22 10:30:09;;;;;;;0.40;0.40;;;;;;;;;;5077796;27;93314;-62
2022/07/22 10:32:35;;;;;;;1.92;0.43;;;;;;;;;;5077975;27;94768;-62
2022/07/22 10:35:03;;;;;;;1.08;0.60;;;;;;;;;;5077773;27;92418;-63
2022/07/22 10:37:38;;;;;;;0.90;0.63;;;;;;;;;;5077240;27;92879;-62
2022/07/22 10:40:08;;;;;;;1.23;0.80;;;;;;;;;;5081204;27;93664;-63
2022/07/22 10:43:08;;;;;;;1.77;0.70;;;;;;;;;;5077500;27;92397;-63
2022/07/22 10:45:45;;;;;;;0.70;0.50;;;;;;;;;;5075306;27;94118;-63
2022/07/22 10:48:12;;;;;;;0.60;0.50;;;;;;;;;;5076436;27;94825;-63
2022/07/22 10:50:43;;;;;;;0.50;0.50;;;;;;;;;;5076908;27;95543;-63
2022/07/22 10:53:12;;;;;;;1.15;0.60;;;;;;;;;;5059092;27;93617;-63
2022/07/22 10:55:57;;;;;;;0.73;0.60;;;;;;;;;;5077380;27;92375;-63
2022/07/22 10:58:32;;;;;;;0.73;0.55;;;;;;;;;;5077493;27;93171;-62
2022/07/22 11:01:01;;;;;;;0.82;0.60;;;;;;;;;;5076765;27;93952;-63
2022/07/22 11:03:28;;;;;;;0.47;0.47;;;;;;;;;;5080435;27;92586;-63
2022/07/22 11:05:56;;;;;;;2.17;0.90;;;;;;;;;;5076299;27;93150;-62
2022/07/22 11:08:22;;;;;;;1.02;0.57;;;;;;;;;;5059191;27;92398;-62
2022/07/22 11:10:49;;;;;;;0.85;0.60;;;;;;;;;;5077238;27;93491;-63
2022/07/22 11:13:31;;;;;;;0.82;0.60;;;;;;;;;;5057074;27;95956;-63
2022/07/22 11:16:17;;;;;;;0.63;0.57;;;;;;;;;;5077650;27;92475;-63
2022/07/22 11:18:45;;;;;;;0.35;0.35;;;;;;;;;;5077257;27;92348;-63
2022/07/22 11:21:12;;;;;;;1.30;0.50;;;;;;;;;;5076490;27;93435;-63
2022/07/22 11:23:42;;;;;;;0.75;0.65;;;;;;;;;;5077001;27;92443;-63
2022/07/22 11:26:10;;;;;;;1.10;0.55;;;;;;;;;;5079817;27;93316;-63
2022/07/22 11:28:40;;;;;;;0.40;0.40;;;;;;;;;;5076857;27;92483;-63
2022/07/22 11:31:07;;;;;;;1.35;0.40;;;;;;;;;;5077682;27;93297;-63
2022/07/22 11:33:33;;;;;;;1.98;0.50;;;;;;;;;;5076689;27;93383;-63
2022/07/22 11:36:03;;;;;;;0.77;0.60;;;;;;;;;;5076558;27;92370;-63
2022/07/22 11:38:59;;;;;;;0.65;0.60;;;;;;;;;;5074373;27;94727;-62
2022/07/22 11:41:27;;;;;;;0.50;0.50;;;;;;;;;;5054321;27;94961;-63
2022/07/22 11:43:54;;;;;;;0.63;0.40;;;;;;;;;;5076623;27;92471;-63
2022/07/22 11:46:21;;;;;;;0.77;0.70;;;;;;;;;;5077411;27;94260;-63
2022/07/22 11:48:47;;;;;;;0.93;0.60;;;;;;;;;;5079869;27;94425;-62
2022/07/22 11:51:15;;;;;;;3.80;0.60;;;;;;;;;;5075686;27;93337;-63
2022/07/22 11:53:46;;;;;;;0.70;0.60;;;;;;;;;;5086938;27;94478;-62
2022/07/22 11:56:13;;;;;;;0.70;0.43;;;;;;;;;;5089124;27;91643;-62
2022/07/22 11:58:43;;;;;;;0.63;0.57;;;;;;;;;;5076494;27;92943;-62
2022/07/22 12:01:11;;;;;;;0.40;0.40;;;;;;;;;;5090338;27;93872;-62
2022/07/22 12:03:38;;;;;;;0.93;0.70;;;;;;;;;;5094464;27;94960;-63
2022/07/22 12:06:07;;;;;;;2.15;0.80;;;;;;;;;;5082780;27;95954;-63
2022/07/22 12:08:34;;;;;;;1.80;0.77;;;;;;;;;;5080275;27;93626;-63
2022/07/22 12:11:00;;;;;;;1.33;0.50;;;;;;;;;;5082022;27;92425;-63
2022/07/22 12:13:28;;;;;;;1.08;0.70;;;;;;;;;;5096597;27;93629;-63
2022/07/22 12:15:54;;;;;;;0.30;0.30;;;;;;;;;;5087679;27;92523;-63
2022/07/22 12:18:22;;;;;;;0.88;0.50;;;;;;;;;;5075866;27;93102;-63
2022/07/22 12:20:49;;;;;;;0.77;0.52;;;;;;;;;;5076329;27;91684;-63
2022/07/22 12:23:20;;;;;;;0.63;0.52;;;;;;;;;;5075813;27;92478;-62
2022/07/22 12:26:05;;;;;;;0.85;0.55;;;;;;;;;;5081886;27;93447;-63
2022/07/22 12:28:31;;;;;;;0.70;0.60;;;;;;;;;;5094561;27;96059;-63
2022/07/22 12:30:58;;;;;;;1.13;0.68;;;;;;;;;;5096714;27;92889;-63
2022/07/22 12:33:24;;;;;;;0.60;0.60;;;;;;;;;;5099580;27;92356;-62
2022/07/22 12:36:01;;;;;;;0.60;0.60;;;;;;;;;;5096791;27;92454;-62
2022/07/22 12:38:28;;;;;;;1.75;0.70;;;;;;;;;;5096308;27;93666;-62
2022/07/22 12:41:35;;;;;;;0.93;0.60;;;;;;;;;;5096132;27;93830;-62
2022/07/22 12:44:02;;;;;;;0.70;0.70;;;;;;;;;;4992475;28;92551;-63
2022/07/22 12:46:29;;;;;;;1.10;0.70;;;;;;;;;;4980626;28;93267;-63
2022/07/22 12:48:59;;;;;;;1.58;0.70;;;;;;;;;;4972765;28;93395;-62
2022/07/22 12:51:26;;;;;;;0.95;0.70;;;;;;;;;;4972789;28;92667;-62
2022/07/22 12:53:53;;;;;;;0.52;0.52;;;;;;;;;;4974352;28;94860;-63
2022/07/22 12:56:20;;;;;;;0.47;0.47;;;;;;;;;;4972841;28;92711;-63
2022/07/22 12:58:47;;;;;;;1.50;0.88;;;;;;;;;;4972610;28;92563;-62
2022/07/22 13:01:13;;;;;;;0.50;0.50;;;;;;;;;;4972475;28;93428;-63
2022/07/22 13:03:40;;;;;;;0.50;0.50;;;;;;;;;;4972537;28;92544;-63
2022/07/22 13:06:10;;;;;;;1.40;0.70;;;;;;;;;;4971855;28;93191;-62
2022/07/22 13:08:38;;;;;;;1.20;0.80;;;;;;;;;;4972970;28;94405;-62
2022/07/22 13:11:12;;;;;;;0.77;0.60;;;;;;;;;;4973002;28;91707;-63
2022/07/22 13:13:39;;;;;;;0.73;0.60;;;;;;;;;;4972713;28;92672;-62
2022/07/22 13:16:06;;;;;;;0.95;0.85;;;;;;;;;;4975821;28;93890;-62
2022/07/22 13:18:32;;;;;;;1.02;0.73;;;;;;;;;;5039749;27;95071;-63
2022/07/22 13:20:58;;;;;;;1.25;0.80;;;;;;;;;;5075562;27;93578;-63
2022/07/22 13:23:25;;;;;;;0.85;0.75;;;;;;;;;;5075031;27;92478;-62
2022/07/22 13:25:51;;;;;;;1.40;0.75;;;;;;;;;;5075447;27;93206;-63
2022/07/22 13:28:21;;;;;;;0.88;0.60;;;;;;;;;;5075377;27;93897;-63
2022/07/22 13:30:47;;;;;;;2.83;0.90;;;;;;;;;;5078937;27;92377;-63
2022/07/22 13:33:16;;;;;;;0.63;0.63;;;;;;;;;;5078494;27;93102;-62
2022/07/22 13:35:42;;;;;;;0.60;0.60;;;;;;;;;;5079085;27;92756;-62
2022/07/22 13:38:08;;;;;;;1.20;0.95;;;;;;;;;;5081286;27;92523;-63
2022/07/22 13:40:40;;;;;;;1.00;0.73;;;;;;;;;;5078868;27;94599;-63
2022/07/22 13:43:07;;;;;;;0.60;0.60;;;;;;;;;;5077314;27;94846;-63
2022/07/22 13:45:40;;;;;;;1.30;0.90;;;;;;;;;;5061486;27;95550;-62
2022/07/22 13:48:06;;;;;;;0.60;0.60;;;;;;;;;;5078306;27;93621;-63
2022/07/22 13:50:33;;;;;;;1.38;0.70;;;;;;;;;;5079149;27;92428;-63
2022/07/22 13:52:59;;;;;;;1.10;1.00;;;;;;;;;;5079017;27;92420;-63
2022/07/22 13:55:26;;;;;;;1.40;0.80;;;;;;;;;;5078517;27;94796;-63
2022/07/22 13:57:52;;;;;;;0.95;0.68;;;;;;;;;;5078278;27;92350;-62
2022/07/22 14:00:19;;;;;;;0.85;0.80;;;;;;;;;;5081761;27;93374;-63
2022/07/22 14:02:45;;;;;;;0.77;0.77;;;;;;;;;;5077889;27;92493;-63
2022/07/22 14:05:12;;;;;;;1.52;1.00;;;;;;;;;;5078594;27;93198;-62
2022/07/22 14:07:38;;;;;;;1.55;1.17;;;;;;;;;;5076409;27;95756;-62
2022/07/22 14:10:05;;;;;;;1.45;1.00;;;;;;;;;;5077911;27;92494;-63
2022/07/22 14:12:31;;;;;;;1.00;0.90;;;;;;;;;;5078135;27;93302;-65
2022/07/22 14:14:57;;;;;;;1.20;1.00;;;;;;;;;;5078138;27;93502;-63
2022/07/22 14:17:30;;;;;;;2.70;1.00;;;;;;;;;;5078045;27;92461;-63
2022/07/22 14:19:56;;;;;;;0.80;0.80;;;;;;;;;;5078094;27;93394;-62
2022/07/22 14:22:26;;;;;;;1.02;0.90;;;;;;;;;;5080699;27;93467;-63
2022/07/22 14:24:53;;;;;;;1.83;1.00;;;;;;;;;;5078239;27;93719;-63
2022/07/22 14:27:19;;;;;;;1.75;0.80;;;;;;;;;;5077516;27;93501;-63
2022/07/22 14:29:45;;;;;;;1.08;1.00;;;;;;;;;;5078184;27;92468;-63
2022/07/22 14:32:11;;;;;;;1.05;0.98;;;;;;;;;;5076255;27;94725;-63
2022/07/22 14:34:38;;;;;;;1.05;0.80;;;;;;;;;;5078320;27;92424;-63
2022/07/22 14:37:04;;;;;;;1.23;1.13;;;;;;;;;;5077652;27;92421;-62
2022/07/22 14:39:30;;;;;;;0.90;0.88;;;;;;;;;;5077938;27;94273;-63
2022/07/22 14:41:58;;;;;;;1.20;1.08;;;;;;;;;;5077537;27;93793;-63
2022/07/22 14:44:25;;;;;;;1.63;1.00;;;;;;;;;;5080750;27;92642;-63
2022/07/22 14:46:51;;;;;;;3.40;0.95;;;;;;;;;;5078094;27;94271;-63